sensor_id;sensor_type;location;lat;lon;timestamp;temperature;humidity
25438;DHT22;13364;49.084;9.978;2023-04-24T00:01:09;9.00;100.00
25438;DHT22;13364;49.084;9.978;2023-04-24T00:03:36;9.00;100.00
25438;DHT22;13364;49.084;9.978;2023-04-24T00:06:06;9.00;100.00
25438;DHT22;13364;49.084;9.978;2023-04-24T00:08:35;9.10;100.00
25438;DHT22;13364;49.084;9.978;2023-04-24T00:11:03;9.20;100.00
25438;DHT22;13364;49.084;9.978;2023-04-24T00:13:30;9.30;100.00
25438;DHT22;13364;49.084;9.978;2023-04-24T00:15:57;9.40;100.00
25438;DHT22;13364;49.084;9.978;2023-04-24T00:18:24;9.50;100.00
25438;DHT22;13364;49.084;9.978;2023-04-24T00:20:51;9.60;100.00
25438;DHT22;13364;49.084;9.978;2023-04-24T00:23:18;9.60;100.00
25438;DHT22;13364;49.084;9.978;2023-04-24T00:25:45;9.50;100.00
25438;DHT22;13364;49.084;9.978;2023-04-24T00:28:12;9.40;100.00
25438;DHT22;13364;49.084;9.978;2023-04-24T00:30:40;9.40;100.00
25438;DHT22;13364;49.084;9.978;2023-04-24T00:33:07;9.30;100.00
25438;DHT22;13364;49.084;9.978;2023-04-24T00:35:34;9.20;100.00
25438;DHT22;13364;49.084;9.978;2023-04-24T00:38:01;9.10;100.00
25438;DHT22;13364;49.084;9.978;2023-04-24T00:40:28;9.10;100.00
25438;DHT22;13364;49.084;9.978;2023-04-24T00:42:56;9.00;100.00
25438;DHT22;13364;49.084;9.978;2023-04-24T00:45:23;9.00;100.00
25438;DHT22;13364;49.084;9.978;2023-04-24T00:47:52;8.90;100.00
25438;DHT22;13364;49.084;9.978;2023-04-24T00:50:21;8.90;100.00
25438;DHT22;13364;49.084;9.978;2023-04-24T00:52:48;9.00;100.00
25438;DHT22;13364;49.084;9.978;2023-04-24T00:55:16;9.10;100.00
25438;DHT22;13364;49.084;9.978;2023-04-24T00:57:44;9.20;100.00
25438;DHT22;13364;49.084;9.978;2023-04-24T01:00:12;9.20;100.00
25438;DHT22;13364;49.084;9.978;2023-04-24T01:02:40;9.20;100.00
25438;DHT22;13364;49.084;9.978;2023-04-24T01:05:13;9.10;100.00
25438;DHT22;13364;49.084;9.978;2023-04-24T01:07:44;9.10;100.00
25438;DHT22;13364;49.084;9.978;2023-04-24T01:10:13;9.10;100.00
25438;DHT22;13364;49.084;9.978;2023-04-24T01:12:41;9.10;100.00
25438;DHT22;13364;49.084;9.978;2023-04-24T01:15:08;9.10;100.00
25438;DHT22;13364;49.084;9.978;2023-04-24T01:17:36;9.10;100.00
25438;DHT22;13364;49.084;9.978;2023-04-24T01:20:03;9.20;100.00
25438;DHT22;13364;49.084;9.978;2023-04-24T01:22:35;9.30;100.00
25438;DHT22;13364;49.084;9.978;2023-04-24T01:25:03;9.30;100.00
25438;DHT22;13364;49.084;9.978;2023-04-24T01:27:30;9.30;100.00
25438;DHT22;13364;49.084;9.978;2023-04-24T01:29:57;9.30;100.00
25438;DHT22;13364;49.084;9.978;2023-04-24T01:32:25;9.40;100.00
25438;DHT22;13364;49.084;9.978;2023-04-24T01:34:52;9.40;100.00
25438;DHT22;13364;49.084;9.978;2023-04-24T01:37:20;9.40;100.00
25438;DHT22;13364;49.084;9.978;2023-04-24T01:39:48;9.30;100.00
25438;DHT22;13364;49.084;9.978;2023-04-24T01:42:16;9.20;100.00
25438;DHT22;13364;49.084;9.978;2023-04-24T01:44:46;9.20;100.00
25438;DHT22;13364;49.084;9.978;2023-04-24T01:47:13;9.10;100.00
25438;DHT22;13364;49.084;9.978;2023-04-24T01:49:40;9.00;100.00
25438;DHT22;13364;49.084;9.978;2023-04-24T01:52:08;8.90;100.00
25438;DHT22;13364;49.084;9.978;2023-04-24T01:54:35;8.90;100.00
25438;DHT22;13364;49.084;9.978;2023-04-24T01:57:02;8.80;100.00
25438;DHT22;13364;49.084;9.978;2023-04-24T01:59:30;8.90;100.00
25438;DHT22;13364;49.084;9.978;2023-04-24T02:01:57;8.80;100.00
25438;DHT22;13364;49.084;9.978;2023-04-24T02:04:24;8.90;100.00
25438;DHT22;13364;49.084;9.978;2023-04-24T02:06:51;8.90;100.00
25438;DHT22;13364;49.084;9.978;2023-04-24T02:09:18;9.00;100.00
25438;DHT22;13364;49.084;9.978;2023-04-24T02:11:45;9.00;100.00
25438;DHT22;13364;49.084;9.978;2023-04-24T02:14:12;9.00;100.00
25438;DHT22;13364;49.084;9.978;2023-04-24T02:16:39;8.90;100.00
25438;DHT22;13364;49.084;9.978;2023-04-24T02:19:07;8.90;100.00
25438;DHT22;13364;49.084;9.978;2023-04-24T02:21:34;8.80;100.00
25438;DHT22;13364;49.084;9.978;2023-04-24T02:24:01;8.80;100.00
25438;DHT22;13364;49.084;9.978;2023-04-24T02:26:28;8.80;100.00
25438;DHT22;13364;49.084;9.978;2023-04-24T02:28:55;8.80;100.00
25438;DHT22;13364;49.084;9.978;2023-04-24T02:31:22;8.70;100.00
25438;DHT22;13364;49.084;9.978;2023-04-24T02:33:49;8.70;100.00
25438;DHT22;13364;49.084;9.978;2023-04-24T02:36:16;8.60;100.00
25438;DHT22;13364;49.084;9.978;2023-04-24T02:38:43;8.60;100.00
25438;DHT22;13364;49.084;9.978;2023-04-24T02:41:12;8.60;100.00
25438;DHT22;13364;49.084;9.978;2023-04-24T02:43:39;8.60;100.00
25438;DHT22;13364;49.084;9.978;2023-04-24T02:46:06;8.70;100.00
25438;DHT22;13364;49.084;9.978;2023-04-24T02:48:33;8.70;100.00
25438;DHT22;13364;49.084;9.978;2023-04-24T02:51:00;8.70;100.00
25438;DHT22;13364;49.084;9.978;2023-04-24T02:53:27;8.70;100.00
25438;DHT22;13364;49.084;9.978;2023-04-24T02:55:56;8.80;100.00
25438;DHT22;13364;49.084;9.978;2023-04-24T02:58:23;8.80;100.00
25438;DHT22;13364;49.084;9.978;2023-04-24T03:00:54;8.80;100.00
25438;DHT22;13364;49.084;9.978;2023-04-24T03:03:24;8.90;100.00
25438;DHT22;13364;49.084;9.978;2023-04-24T03:05:52;8.90;100.00
25438;DHT22;13364;49.084;9.978;2023-04-24T03:08:19;8.90;100.00
25438;DHT22;13364;49.084;9.978;2023-04-24T03:10:47;8.90;100.00
25438;DHT22;13364;49.084;9.978;2023-04-24T03:13:16;8.90;100.00
25438;DHT22;13364;49.084;9.978;2023-04-24T03:15:43;8.80;100.00
25438;DHT22;13364;49.084;9.978;2023-04-24T03:18:10;8.80;100.00
25438;DHT22;13364;49.084;9.978;2023-04-24T03:20:37;8.70;100.00
25438;DHT22;13364;49.084;9.978;2023-04-24T03:23:04;8.80;100.00
25438;DHT22;13364;49.084;9.978;2023-04-24T03:25:31;8.80;100.00
25438;DHT22;13364;49.084;9.978;2023-04-24T03:27:58;8.90;100.00
25438;DHT22;13364;49.084;9.978;2023-04-24T03:30:41;8.90;100.00
25438;DHT22;13364;49.084;9.978;2023-04-24T03:33:09;8.90;100.00
25438;DHT22;13364;49.084;9.978;2023-04-24T03:35:42;9.00;100.00
25438;DHT22;13364;49.084;9.978;2023-04-24T03:38:11;8.90;99.60
25438;DHT22;13364;49.084;9.978;2023-04-24T03:41:01;8.80;100.00
25438;DHT22;13364;49.084;9.978;2023-04-24T03:43:39;8.80;100.00
25438;DHT22;13364;49.084;9.978;2023-04-24T03:46:06;8.80;100.00
25438;DHT22;13364;49.084;9.978;2023-04-24T03:48:40;8.70;100.00
25438;DHT22;13364;49.084;9.978;2023-04-24T03:51:09;8.60;100.00
25438;DHT22;13364;49.084;9.978;2023-04-24T03:53:38;8.60;100.00
25438;DHT22;13364;49.084;9.978;2023-04-24T03:56:06;8.50;100.00
25438;DHT22;13364;49.084;9.978;2023-04-24T03:58:34;8.60;100.00
25438;DHT22;13364;49.084;9.978;2023-04-24T04:01:01;8.60;100.00
25438;DHT22;13364;49.084;9.978;2023-04-24T04:03:42;8.70;100.00
25438;DHT22;13364;49.084;9.978;2023-04-24T04:06:10;8.80;100.00
25438;DHT22;13364;49.084;9.978;2023-04-24T04:08:38;8.80;100.00
25438;DHT22;13364;49.084;9.978;2023-04-24T04:11:05;8.80;100.00
25438;DHT22;13364;49.084;9.978;2023-04-24T04:13:32;8.70;100.00
25438;DHT22;13364;49.084;9.978;2023-04-24T04:15:59;8.70;100.00
25438;DHT22;13364;49.084;9.978;2023-04-24T04:18:26;8.70;100.00
25438;DHT22;13364;49.084;9.978;2023-04-24T04:20:53;8.70;100.00
25438;DHT22;13364;49.084;9.978;2023-04-24T04:23:20;8.70;100.00
25438;DHT22;13364;49.084;9.978;2023-04-24T04:26:05;8.60;100.00
25438;DHT22;13364;49.084;9.978;2023-04-24T04:28:47;8.60;100.00
25438;DHT22;13364;49.084;9.978;2023-04-24T04:31:15;8.60;100.00
25438;DHT22;13364;49.084;9.978;2023-04-24T04:33:42;8.60;100.00
25438;DHT22;13364;49.084;9.978;2023-04-24T04:36:09;8.60;100.00
25438;DHT22;13364;49.084;9.978;2023-04-24T04:38:41;8.60;100.00
25438;DHT22;13364;49.084;9.978;2023-04-24T04:41:47;8.60;100.00
25438;DHT22;13364;49.084;9.978;2023-04-24T04:44:17;8.60;100.00
25438;DHT22;13364;49.084;9.978;2023-04-24T04:46:45;8.60;100.00
25438;DHT22;13364;49.084;9.978;2023-04-24T04:49:24;8.60;100.00
25438;DHT22;13364;49.084;9.978;2023-04-24T04:51:51;8.60;100.00
25438;DHT22;13364;49.084;9.978;2023-04-24T04:54:19;8.60;100.00
25438;DHT22;13364;49.084;9.978;2023-04-24T04:56:46;8.60;100.00
25438;DHT22;13364;49.084;9.978;2023-04-24T04:59:14;8.60;100.00
25438;DHT22;13364;49.084;9.978;2023-04-24T05:01:41;8.60;100.00
25438;DHT22;13364;49.084;9.978;2023-04-24T05:04:11;8.70;100.00
25438;DHT22;13364;49.084;9.978;2023-04-24T05:06:38;8.80;100.00
25438;DHT22;13364;49.084;9.978;2023-04-24T05:09:05;8.80;100.00
25438;DHT22;13364;49.084;9.978;2023-04-24T05:11:48;8.80;100.00
25438;DHT22;13364;49.084;9.978;2023-04-24T05:14:16;9.00;100.00
25438;DHT22;13364;49.084;9.978;2023-04-24T05:16:45;9.10;100.00
25438;DHT22;13364;49.084;9.978;2023-04-24T05:19:13;9.30;100.00
25438;DHT22;13364;49.084;9.978;2023-04-24T05:21:41;9.30;100.00
25438;DHT22;13364;49.084;9.978;2023-04-24T05:24:09;9.20;100.00
25438;DHT22;13364;49.084;9.978;2023-04-24T05:26:58;9.10;100.00
25438;DHT22;13364;49.084;9.978;2023-04-24T05:29:32;9.00;100.00
25438;DHT22;13364;49.084;9.978;2023-04-24T05:32:00;8.90;100.00
25438;DHT22;13364;49.084;9.978;2023-04-24T05:34:29;8.80;100.00
25438;DHT22;13364;49.084;9.978;2023-04-24T05:36:57;8.80;100.00
25438;DHT22;13364;49.084;9.978;2023-04-24T05:39:24;8.80;100.00
25438;DHT22;13364;49.084;9.978;2023-04-24T05:41:53;8.70;100.00
25438;DHT22;13364;49.084;9.978;2023-04-24T05:44:20;8.70;100.00
25438;DHT22;13364;49.084;9.978;2023-04-24T05:46:47;8.70;100.00
25438;DHT22;13364;49.084;9.978;2023-04-24T05:49:15;8.80;100.00
25438;DHT22;13364;49.084;9.978;2023-04-24T05:51:42;8.90;100.00
25438;DHT22;13364;49.084;9.978;2023-04-24T05:54:10;9.00;100.00
25438;DHT22;13364;49.084;9.978;2023-04-24T05:56:39;9.10;100.00
25438;DHT22;13364;49.084;9.978;2023-04-24T05:59:10;9.20;100.00
25438;DHT22;13364;49.084;9.978;2023-04-24T06:01:37;9.20;100.00
25438;DHT22;13364;49.084;9.978;2023-04-24T06:04:11;9.20;100.00
25438;DHT22;13364;49.084;9.978;2023-04-24T06:06:40;9.30;100.00
25438;DHT22;13364;49.084;9.978;2023-04-24T06:09:08;9.30;100.00
25438;DHT22;13364;49.084;9.978;2023-04-24T06:11:35;9.30;100.00
25438;DHT22;13364;49.084;9.978;2023-04-24T06:14:02;9.20;100.00
25438;DHT22;13364;49.084;9.978;2023-04-24T06:16:55;9.10;100.00
25438;DHT22;13364;49.084;9.978;2023-04-24T06:19:34;9.00;100.00
25438;DHT22;13364;49.084;9.978;2023-04-24T06:22:02;9.10;100.00
25438;DHT22;13364;49.084;9.978;2023-04-24T06:24:29;9.10;100.00
25438;DHT22;13364;49.084;9.978;2023-04-24T06:26:57;9.20;100.00
25438;DHT22;13364;49.084;9.978;2023-04-24T06:29:26;9.20;100.00
25438;DHT22;13364;49.084;9.978;2023-04-24T06:31:53;9.20;100.00
25438;DHT22;13364;49.084;9.978;2023-04-24T06:34:20;9.20;100.00
25438;DHT22;13364;49.084;9.978;2023-04-24T06:36:47;9.10;100.00
25438;DHT22;13364;49.084;9.978;2023-04-24T06:39:14;9.10;100.00
25438;DHT22;13364;49.084;9.978;2023-04-24T06:41:42;9.10;100.00
25438;DHT22;13364;49.084;9.978;2023-04-24T06:44:19;9.00;100.00
25438;DHT22;13364;49.084;9.978;2023-04-24T06:46:46;8.90;100.00
25438;DHT22;13364;49.084;9.978;2023-04-24T06:49:13;8.80;100.00
25438;DHT22;13364;49.084;9.978;2023-04-24T06:51:42;8.70;100.00
25438;DHT22;13364;49.084;9.978;2023-04-24T06:54:10;8.50;100.00
25438;DHT22;13364;49.084;9.978;2023-04-24T06:56:37;8.50;100.00
25438;DHT22;13364;49.084;9.978;2023-04-24T06:59:10;8.40;100.00
25438;DHT22;13364;49.084;9.978;2023-04-24T07:01:37;8.40;100.00
25438;DHT22;13364;49.084;9.978;2023-04-24T07:04:04;8.50;100.00
25438;DHT22;13364;49.084;9.978;2023-04-24T07:06:31;8.60;100.00
25438;DHT22;13364;49.084;9.978;2023-04-24T07:08:59;8.80;100.00
25438;DHT22;13364;49.084;9.978;2023-04-24T07:11:27;8.90;100.00
25438;DHT22;13364;49.084;9.978;2023-04-24T07:13:56;9.10;100.00
25438;DHT22;13364;49.084;9.978;2023-04-24T07:16:23;9.30;100.00
25438;DHT22;13364;49.084;9.978;2023-04-24T07:18:50;9.30;100.00
25438;DHT22;13364;49.084;9.978;2023-04-24T07:21:17;9.30;100.00
25438;DHT22;13364;49.084;9.978;2023-04-24T07:23:44;9.30;99.00
25438;DHT22;13364;49.084;9.978;2023-04-24T07:26:11;9.30;98.30
25438;DHT22;13364;49.084;9.978;2023-04-24T07:28:38;9.20;98.90
25438;DHT22;13364;49.084;9.978;2023-04-24T07:31:05;9.30;98.80
25438;DHT22;13364;49.084;9.978;2023-04-24T07:33:32;9.30;99.10
25438;DHT22;13364;49.084;9.978;2023-04-24T07:35:59;9.20;97.80
25438;DHT22;13364;49.084;9.978;2023-04-24T07:38:28;9.20;99.00
25438;DHT22;13364;49.084;9.978;2023-04-24T07:40:55;9.20;99.30
25438;DHT22;13364;49.084;9.978;2023-04-24T07:43:22;9.40;99.30
25438;DHT22;13364;49.084;9.978;2023-04-24T07:45:51;9.40;96.90
25438;DHT22;13364;49.084;9.978;2023-04-24T07:48:18;9.50;96.30
25438;DHT22;13364;49.084;9.978;2023-04-24T07:50:45;9.60;96.70
25438;DHT22;13364;49.084;9.978;2023-04-24T07:53:12;9.60;95.10
25438;DHT22;13364;49.084;9.978;2023-04-24T07:58:59;9.70;95.10
25438;DHT22;13364;49.084;9.978;2023-04-24T08:01:27;9.60;93.70
25438;DHT22;13364;49.084;9.978;2023-04-24T08:03:54;9.60;93.70
25438;DHT22;13364;49.084;9.978;2023-04-24T08:06:22;9.50;95.90
25438;DHT22;13364;49.084;9.978;2023-04-24T08:08:49;9.70;96.50
25438;DHT22;13364;49.084;9.978;2023-04-24T08:11:18;9.90;97.40
25438;DHT22;13364;49.084;9.978;2023-04-24T08:13:45;10.10;96.40
25438;DHT22;13364;49.084;9.978;2023-04-24T08:16:12;10.20;93.40
25438;DHT22;13364;49.084;9.978;2023-04-24T08:18:39;10.20;88.40
25438;DHT22;13364;49.084;9.978;2023-04-24T08:21:06;10.10;88.30
25438;DHT22;13364;49.084;9.978;2023-04-24T08:23:33;10.00;89.10
25438;DHT22;13364;49.084;9.978;2023-04-24T08:26:00;10.10;90.80
25438;DHT22;13364;49.084;9.978;2023-04-24T08:28:27;10.10;90.00
25438;DHT22;13364;49.084;9.978;2023-04-24T08:30:54;10.00;87.70
25438;DHT22;13364;49.084;9.978;2023-04-24T08:33:22;10.00;89.50
25438;DHT22;13364;49.084;9.978;2023-04-24T08:35:51;10.10;88.00
25438;DHT22;13364;49.084;9.978;2023-04-24T08:38:19;10.00;87.70
25438;DHT22;13364;49.084;9.978;2023-04-24T08:40:47;10.10;91.50
25438;DHT22;13364;49.084;9.978;2023-04-24T08:43:16;10.30;89.20
25438;DHT22;13364;49.084;9.978;2023-04-24T08:45:43;10.40;89.30
25438;DHT22;13364;49.084;9.978;2023-04-24T08:48:11;10.70;89.60
25438;DHT22;13364;49.084;9.978;2023-04-24T08:50:56;10.90;84.20
25438;DHT22;13364;49.084;9.978;2023-04-24T08:53:25;11.10;82.70
25438;DHT22;13364;49.084;9.978;2023-04-24T08:55:54;11.10;82.00
25438;DHT22;13364;49.084;9.978;2023-04-24T08:58:22;11.10;82.80
25438;DHT22;13364;49.084;9.978;2023-04-24T09:01:15;11.20;83.30
25438;DHT22;13364;49.084;9.978;2023-04-24T09:03:42;11.10;81.50
25438;DHT22;13364;49.084;9.978;2023-04-24T09:06:11;11.30;83.30
25438;DHT22;13364;49.084;9.978;2023-04-24T09:08:39;11.40;79.40
25438;DHT22;13364;49.084;9.978;2023-04-24T09:11:08;11.60;80.90
25438;DHT22;13364;49.084;9.978;2023-04-24T09:13:36;11.80;76.90
25438;DHT22;13364;49.084;9.978;2023-04-24T09:16:03;11.90;76.00
25438;DHT22;13364;49.084;9.978;2023-04-24T09:18:30;12.10;73.40
25438;DHT22;13364;49.084;9.978;2023-04-24T09:23:31;12.30;73.20
25438;DHT22;13364;49.084;9.978;2023-04-24T09:26:10;12.40;73.10
25438;DHT22;13364;49.084;9.978;2023-04-24T09:28:41;12.60;70.30
25438;DHT22;13364;49.084;9.978;2023-04-24T09:31:14;12.90;69.10
25438;DHT22;13364;49.084;9.978;2023-04-24T09:34:14;13.10;67.40
25438;DHT22;13364;49.084;9.978;2023-04-24T09:36:42;13.20;66.60
25438;DHT22;13364;49.084;9.978;2023-04-24T09:39:12;13.10;64.80
25438;DHT22;13364;49.084;9.978;2023-04-24T09:41:50;13.00;62.40
25438;DHT22;13364;49.084;9.978;2023-04-24T09:44:22;12.90;65.30
25438;DHT22;13364;49.084;9.978;2023-04-24T09:47:00;13.00;65.00
25438;DHT22;13364;49.084;9.978;2023-04-24T09:49:28;13.20;66.50
25438;DHT22;13364;49.084;9.978;2023-04-24T09:52:06;13.20;63.70
25438;DHT22;13364;49.084;9.978;2023-04-24T09:54:34;13.00;63.70
25438;DHT22;13364;49.084;9.978;2023-04-24T09:57:06;12.80;64.60
25438;DHT22;13364;49.084;9.978;2023-04-24T09:59:34;12.50;64.60
25438;DHT22;13364;49.084;9.978;2023-04-24T10:02:03;12.20;65.40
25438;DHT22;13364;49.084;9.978;2023-04-24T10:08:11;11.90;67.80
25438;DHT22;13364;49.084;9.978;2023-04-24T10:10:44;12.20;69.30
25438;DHT22;13364;49.084;9.978;2023-04-24T10:13:13;12.50;67.60
25438;DHT22;13364;49.084;9.978;2023-04-24T10:15:41;12.70;67.40
25438;DHT22;13364;49.084;9.978;2023-04-24T10:18:10;12.90;67.00
25438;DHT22;13364;49.084;9.978;2023-04-24T10:20:39;13.00;64.80
25438;DHT22;13364;49.084;9.978;2023-04-24T10:23:07;12.90;65.00
25438;DHT22;13364;49.084;9.978;2023-04-24T10:25:35;12.80;64.70
25438;DHT22;13364;49.084;9.978;2023-04-24T10:28:04;12.60;62.40
25438;DHT22;13364;49.084;9.978;2023-04-24T10:30:34;12.20;65.40
25438;DHT22;13364;49.084;9.978;2023-04-24T10:33:06;11.90;66.80
25438;DHT22;13364;49.084;9.978;2023-04-24T10:35:45;11.70;69.80
25438;DHT22;13364;49.084;9.978;2023-04-24T10:38:25;11.50;68.60
25438;DHT22;13364;49.084;9.978;2023-04-24T10:41:06;11.30;69.60
25438;DHT22;13364;49.084;9.978;2023-04-24T10:43:35;11.30;71.50
25438;DHT22;13364;49.084;9.978;2023-04-24T10:46:03;11.30;69.60
25438;DHT22;13364;49.084;9.978;2023-04-24T10:48:31;11.30;69.60
25438;DHT22;13364;49.084;9.978;2023-04-24T10:50:59;11.30;70.40
25438;DHT22;13364;49.084;9.978;2023-04-24T10:53:30;11.20;72.50
25438;DHT22;13364;49.084;9.978;2023-04-24T10:56:04;11.10;72.00
25438;DHT22;13364;49.084;9.978;2023-04-24T10:58:42;11.00;71.30
25438;DHT22;13364;49.084;9.978;2023-04-24T11:01:32;10.80;71.90
25438;DHT22;13364;49.084;9.978;2023-04-24T11:04:01;10.90;73.40
25438;DHT22;13364;49.084;9.978;2023-04-24T11:06:35;11.00;74.20
25438;DHT22;13364;49.084;9.978;2023-04-24T11:09:06;11.10;70.50
25438;DHT22;13364;49.084;9.978;2023-04-24T11:11:36;11.10;68.60
25438;DHT22;13364;49.084;9.978;2023-04-24T11:14:05;11.30;69.40
25438;DHT22;13364;49.084;9.978;2023-04-24T11:16:45;11.50;68.30
25438;DHT22;13364;49.084;9.978;2023-04-24T11:22:00;11.70;67.20
25438;DHT22;13364;49.084;9.978;2023-04-24T11:24:50;11.70;66.90
25438;DHT22;13364;49.084;9.978;2023-04-24T11:27:45;11.60;66.80
25438;DHT22;13364;49.084;9.978;2023-04-24T11:30:17;11.20;70.20
25438;DHT22;13364;49.084;9.978;2023-04-24T11:32:48;10.70;74.90
25438;DHT22;13364;49.084;9.978;2023-04-24T11:35:21;10.30;76.50
25438;DHT22;13364;49.084;9.978;2023-04-24T11:37:52;10.00;79.70
25438;DHT22;13364;49.084;9.978;2023-04-24T11:40:40;9.80;80.90
25438;DHT22;13364;49.084;9.978;2023-04-24T11:43:09;9.60;82.00
25438;DHT22;13364;49.084;9.978;2023-04-24T11:45:36;9.50;82.60
25438;DHT22;13364;49.084;9.978;2023-04-24T11:48:03;9.50;84.20
25438;DHT22;13364;49.084;9.978;2023-04-24T11:50:30;9.70;84.60
25438;DHT22;13364;49.084;9.978;2023-04-24T11:52:58;9.80;82.80
25438;DHT22;13364;49.084;9.978;2023-04-24T11:55:28;9.90;82.80
25438;DHT22;13364;49.084;9.978;2023-04-24T11:57:57;10.00;81.30
25438;DHT22;13364;49.084;9.978;2023-04-24T12:00:32;10.00;79.80
25438;DHT22;13364;49.084;9.978;2023-04-24T12:03:35;10.20;82.20
25438;DHT22;13364;49.084;9.978;2023-04-24T12:06:06;10.40;79.10
25438;DHT22;13364;49.084;9.978;2023-04-24T12:08:35;10.60;78.40
25438;DHT22;13364;49.084;9.978;2023-04-24T12:11:06;10.70;77.30
25438;DHT22;13364;49.084;9.978;2023-04-24T12:13:36;10.80;75.30
25438;DHT22;13364;49.084;9.978;2023-04-24T12:16:29;10.70;74.30
25438;DHT22;13364;49.084;9.978;2023-04-24T12:18:58;10.70;73.10
25438;DHT22;13364;49.084;9.978;2023-04-24T12:21:25;10.60;73.70
25438;DHT22;13364;49.084;9.978;2023-04-24T12:23:56;10.60;71.40
25438;DHT22;13364;49.084;9.978;2023-04-24T12:26:23;10.40;71.00
25438;DHT22;13364;49.084;9.978;2023-04-24T12:28:51;10.30;72.00
25438;DHT22;13364;49.084;9.978;2023-04-24T12:31:20;10.20;72.40
25438;DHT22;13364;49.084;9.978;2023-04-24T12:33:47;10.10;73.50
25438;DHT22;13364;49.084;9.978;2023-04-24T12:36:14;10.00;76.70
25438;DHT22;13364;49.084;9.978;2023-04-24T12:38:43;10.00;77.20
25438;DHT22;13364;49.084;9.978;2023-04-24T12:41:13;10.00;79.80
25438;DHT22;13364;49.084;9.978;2023-04-24T12:43:53;9.80;78.40
25438;DHT22;13364;49.084;9.978;2023-04-24T12:46:21;9.70;80.00
25438;DHT22;13364;49.084;9.978;2023-04-24T12:48:48;9.50;78.10
25438;DHT22;13364;49.084;9.978;2023-04-24T12:51:15;9.40;78.50
25438;DHT22;13364;49.084;9.978;2023-04-24T12:53:42;9.40;77.70
25438;DHT22;13364;49.084;9.978;2023-04-24T12:56:10;9.40;79.20
25438;DHT22;13364;49.084;9.978;2023-04-24T12:58:37;9.60;81.20
25438;DHT22;13364;49.084;9.978;2023-04-24T13:01:04;9.80;80.00
25438;DHT22;13364;49.084;9.978;2023-04-24T13:03:32;10.10;79.30
25438;DHT22;13364;49.084;9.978;2023-04-24T13:05:59;10.20;76.20
25438;DHT22;13364;49.084;9.978;2023-04-24T13:08:26;10.30;75.80
25438;DHT22;13364;49.084;9.978;2023-04-24T13:10:53;10.30;74.80
25438;DHT22;13364;49.084;9.978;2023-04-24T13:13:20;10.40;76.40
25438;DHT22;13364;49.084;9.978;2023-04-24T13:15:47;10.40;77.70
25438;DHT22;13364;49.084;9.978;2023-04-24T13:18:14;10.30;78.60
25438;DHT22;13364;49.084;9.978;2023-04-24T13:20:41;10.00;82.20
25438;DHT22;13364;49.084;9.978;2023-04-24T13:23:08;9.90;84.50
25438;DHT22;13364;49.084;9.978;2023-04-24T13:25:36;9.90;83.80
25438;DHT22;13364;49.084;9.978;2023-04-24T13:28:05;9.90;83.90
25438;DHT22;13364;49.084;9.978;2023-04-24T13:30:32;9.90;83.60
25438;DHT22;13364;49.084;9.978;2023-04-24T13:33:00;9.90;85.70
25438;DHT22;13364;49.084;9.978;2023-04-24T13:35:27;9.90;84.00
25438;DHT22;13364;49.084;9.978;2023-04-24T13:37:54;9.90;83.00
25438;DHT22;13364;49.084;9.978;2023-04-24T13:40:21;9.80;83.40
25438;DHT22;13364;49.084;9.978;2023-04-24T13:42:48;9.60;85.30
25438;DHT22;13364;49.084;9.978;2023-04-24T13:45:15;9.30;86.80
25438;DHT22;13364;49.084;9.978;2023-04-24T13:47:51;9.00;88.20
25438;DHT22;13364;49.084;9.978;2023-04-24T13:50:20;8.80;89.00
25438;DHT22;13364;49.084;9.978;2023-04-24T13:56:26;8.90;94.40
25438;DHT22;13364;49.084;9.978;2023-04-24T13:58:53;9.20;93.90
25438;DHT22;13364;49.084;9.978;2023-04-24T14:01:23;9.50;91.00
25438;DHT22;13364;49.084;9.978;2023-04-24T14:03:52;9.70;89.30
25438;DHT22;13364;49.084;9.978;2023-04-24T14:06:20;9.70;87.60
25438;DHT22;13364;49.084;9.978;2023-04-24T14:08:48;9.80;88.00
25438;DHT22;13364;49.084;9.978;2023-04-24T14:11:14;9.80;87.20
25438;DHT22;13364;49.084;9.978;2023-04-24T14:13:42;9.90;88.70
25438;DHT22;13364;49.084;9.978;2023-04-24T14:16:10;10.20;88.60
25438;DHT22;13364;49.084;9.978;2023-04-24T14:18:38;10.50;82.60
25438;DHT22;13364;49.084;9.978;2023-04-24T14:21:05;10.70;84.40
25438;DHT22;13364;49.084;9.978;2023-04-24T14:23:32;10.90;81.50
25438;DHT22;13364;49.084;9.978;2023-04-24T14:25:59;11.20;80.60
25438;DHT22;13364;49.084;9.978;2023-04-24T14:28:26;11.30;82.10
25438;DHT22;13364;49.084;9.978;2023-04-24T14:30:53;11.50;79.70
25438;DHT22;13364;49.084;9.978;2023-04-24T14:33:21;11.60;77.70
25438;DHT22;13364;49.084;9.978;2023-04-24T14:35:48;11.70;77.30
25438;DHT22;13364;49.084;9.978;2023-04-24T14:38:15;11.60;75.50
25438;DHT22;13364;49.084;9.978;2023-04-24T14:40:42;11.40;74.60
25438;DHT22;13364;49.084;9.978;2023-04-24T14:43:12;11.20;75.20
25438;DHT22;13364;49.084;9.978;2023-04-24T14:45:39;11.10;76.00
25438;DHT22;13364;49.084;9.978;2023-04-24T14:48:07;11.10;77.60
25438;DHT22;13364;49.084;9.978;2023-04-24T14:50:35;11.10;76.50
25438;DHT22;13364;49.084;9.978;2023-04-24T14:53:02;11.10;76.80
25438;DHT22;13364;49.084;9.978;2023-04-24T14:55:30;11.20;77.60
25438;DHT22;13364;49.084;9.978;2023-04-24T14:57:58;11.20;75.10
25438;DHT22;13364;49.084;9.978;2023-04-24T15:00:25;11.00;74.50
25438;DHT22;13364;49.084;9.978;2023-04-24T15:02:52;10.90;75.50
25438;DHT22;13364;49.084;9.978;2023-04-24T15:05:19;10.90;75.30
25438;DHT22;13364;49.084;9.978;2023-04-24T15:07:47;10.90;77.00
25438;DHT22;13364;49.084;9.978;2023-04-24T15:10:14;11.00;77.40
25438;DHT22;13364;49.084;9.978;2023-04-24T15:12:41;11.00;75.60
25438;DHT22;13364;49.084;9.978;2023-04-24T15:15:08;11.00;74.60
25438;DHT22;13364;49.084;9.978;2023-04-24T15:17:35;11.00;75.00
25438;DHT22;13364;49.084;9.978;2023-04-24T15:24:08;11.00;75.90
25438;DHT22;13364;49.084;9.978;2023-04-24T15:26:35;11.10;73.20
25438;DHT22;13364;49.084;9.978;2023-04-24T15:29:02;11.10;73.20
25438;DHT22;13364;49.084;9.978;2023-04-24T15:31:29;11.20;73.90
25438;DHT22;13364;49.084;9.978;2023-04-24T15:33:56;11.20;72.90
25438;DHT22;13364;49.084;9.978;2023-04-24T15:36:23;11.20;72.10
25438;DHT22;13364;49.084;9.978;2023-04-24T15:38:50;11.10;72.70
25438;DHT22;13364;49.084;9.978;2023-04-24T15:41:17;11.10;72.50
25438;DHT22;13364;49.084;9.978;2023-04-24T15:43:44;11.20;74.00
25438;DHT22;13364;49.084;9.978;2023-04-24T15:46:12;11.30;71.80
25438;DHT22;13364;49.084;9.978;2023-04-24T15:48:39;11.40;73.60
25438;DHT22;13364;49.084;9.978;2023-04-24T15:51:08;11.50;70.50
25438;DHT22;13364;49.084;9.978;2023-04-24T15:53:36;11.40;70.20
25438;DHT22;13364;49.084;9.978;2023-04-24T15:56:03;11.40;71.70
25438;DHT22;13364;49.084;9.978;2023-04-24T15:58:31;11.40;71.80
25438;DHT22;13364;49.084;9.978;2023-04-24T16:00:58;11.40;72.90
25438;DHT22;13364;49.084;9.978;2023-04-24T16:03:25;11.40;71.30
25438;DHT22;13364;49.084;9.978;2023-04-24T16:05:52;11.30;70.60